createdAt,value
2017-02-04T00:00:43.343Z,6.04
2017-02-04T00:01:48.553Z,6.01
2017-02-04T00:02:53.766Z,6.04
2017-02-04T00:03:59.978Z,5.93
2017-02-04T00:05:05.111Z,5.96
2017-02-04T00:06:11.384Z,5.96
2017-02-04T00:07:16.613Z,5.98
2017-02-04T00:08:20.814Z,5.98
2017-02-04T00:09:26.019Z,5.98
2017-02-04T00:10:32.187Z,5.92
2017-02-04T00:11:37.409Z,6.04
2017-02-04T00:12:43.580Z,5.98
2017-02-04T00:13:48.887Z,6.06
2017-02-04T00:14:54.102Z,6.09
2017-02-04T00:15:59.297Z,6.06
2017-02-04T00:17:04.483Z,6.01
2017-02-04T00:18:09.650Z,6
2017-02-04T00:19:15.811Z,6.03
2017-02-04T00:20:21.037Z,6.1
2017-02-04T00:21:25.248Z,6.06
2017-02-04T00:22:29.476Z,6.01
2017-02-04T00:23:33.695Z,6.01
2017-02-04T00:24:39.874Z,6.06
2017-02-04T00:25:46.033Z,6.14
2017-02-04T00:26:49.433Z,6.22
2017-02-04T00:27:51.691Z,6.22
2017-02-04T00:28:56.881Z,6.26
2017-02-04T00:30:02.080Z,6.3
2017-02-04T00:31:05.343Z,6.38
2017-02-04T00:32:11.507Z,6.47
2017-02-04T00:33:16.768Z,6.5
2017-02-04T00:34:21.972Z,6.53
2017-02-04T00:35:27.173Z,6.66
2017-02-04T00:36:32.408Z,6.63
2017-02-04T00:37:38.556Z,6.79
2017-02-04T00:38:44.736Z,6.8
2017-02-04T00:39:50.911Z,6.77
2017-02-04T00:40:55.177Z,6.81
2017-02-04T00:42:01.307Z,6.86
2017-02-04T00:43:07.500Z,6.79
2017-02-04T00:44:12.705Z,6.86
2017-02-04T00:45:16.939Z,6.91
2017-02-04T00:46:23.115Z,6.98
2017-02-04T00:47:29.309Z,6.91
2017-02-04T00:48:33.533Z,7.05
2017-02-04T00:49:38.684Z,7.05
2017-02-04T00:50:44.867Z,7.04
2017-02-04T00:51:51.035Z,7.04
2017-02-04T00:52:57.319Z,7.13
2017-02-04T00:54:03.502Z,7.13
2017-02-04T00:55:07.740Z,7.12
2017-02-04T00:56:13.919Z,7.22
2017-02-04T00:57:20.083Z,7.22
2017-02-04T00:58:25.287Z,7.2
2017-02-04T00:59:30.501Z,7.19
2017-02-04T01:00:36.673Z,7.23
2017-02-04T01:01:40.884Z,7.23
2017-02-04T01:02:46.097Z,7.22
2017-02-04T01:03:52.268Z,7.38
2017-02-04T01:04:57.469Z,7.38
2017-02-04T01:06:02.727Z,7.45
2017-02-04T01:07:08.912Z,7.42
2017-02-04T01:08:13.147Z,7.49
2017-02-04T01:09:18.465Z,7.41
2017-02-04T01:10:23.639Z,7.47
2017-02-04T01:11:27.874Z,7.49
2017-02-04T01:12:33.075Z,7.47
2017-02-04T01:13:38.267Z,7.5
2017-02-04T01:14:44.445Z,7.55
2017-02-04T01:15:50.593Z,7.58
2017-02-04T01:16:56.753Z,7.62
2017-02-04T01:18:02.922Z,7.59
2017-02-04T01:19:08.127Z,7.6
2017-02-04T01:20:12.366Z,7.6
2017-02-04T01:21:18.589Z,7.66
2017-02-04T01:22:23.790Z,7.67
2017-02-04T01:23:29.963Z,7.6
2017-02-04T01:24:36.150Z,7.69
2017-02-04T01:25:42.303Z,7.62
2017-02-04T01:26:48.473Z,7.74
2017-02-04T01:27:53.670Z,7.74
2017-02-04T01:28:59.851Z,7.69
2017-02-04T01:30:04.083Z,7.72
2017-02-04T01:31:08.321Z,7.75
2017-02-04T01:32:14.490Z,7.87
2017-02-04T01:34:26.829Z,7.82
2017-02-04T01:35:32.040Z,7.81
2017-02-04T01:36:38.222Z,7.85
2017-02-04T01:37:44.365Z,7.87
2017-02-04T01:38:49.574Z,7.9
2017-02-04T01:39:54.822Z,7.85
2017-02-04T01:41:00.946Z,7.9
2017-02-04T01:42:07.108Z,7.82
2017-02-04T01:43:13.295Z,7.97
2017-02-04T01:44:18.465Z,7.94
2017-02-04T01:45:24.685Z,8.03
2017-02-04T01:46:30.819Z,7.94
2017-02-04T01:47:36.987Z,8.02
2017-02-04T01:48:41.226Z,8.03
2017-02-04T01:49:44.485Z,7.93
2017-02-04T01:50:50.654Z,7.94
2017-02-04T01:51:56.959Z,8
2017-02-04T01:53:03.143Z,7.99
2017-02-04T01:54:09.264Z,8.03
2017-02-04T01:55:14.437Z,7.97
2017-02-04T01:56:20.622Z,8.02
2017-02-04T01:57:23.889Z,8.07
2017-02-04T01:58:30.057Z,8.02
2017-02-04T01:59:35.316Z,8.1
2017-02-04T02:00:40.577Z,8.1
2017-02-04T02:01:46.739Z,8.02
2017-02-04T02:02:50.986Z,8.07
2017-02-04T02:03:56.182Z,8.07
2017-02-04T02:05:02.353Z,8.04
2017-02-04T02:06:08.550Z,8
2017-02-04T02:07:13.755Z,8.11
2017-02-04T02:08:19.900Z,8
2017-02-04T02:09:26.076Z,8.02
2017-02-04T02:10:31.247Z,7.96
2017-02-04T02:11:37.418Z,8.03
2017-02-04T02:12:42.710Z,7.85
2017-02-04T02:13:48.883Z,7.89
2017-02-04T02:14:55.042Z,7.82
2017-02-04T02:16:00.244Z,7.82
2017-02-04T02:17:06.417Z,7.87
2017-02-04T02:18:10.627Z,7.89
2017-02-04T02:19:15.823Z,7.92
2017-02-04T02:20:20.103Z,7.85
2017-02-04T02:21:24.274Z,7.79
2017-02-04T02:22:30.440Z,7.84
2017-02-04T02:23:35.656Z,7.81
2017-02-04T02:24:39.938Z,7.84
2017-02-04T02:25:46.130Z,7.82
2017-02-04T02:26:52.276Z,7.9
2017-02-04T02:27:57.476Z,7.87
2017-02-04T02:29:02.673Z,7.89
2017-02-04T02:30:07.881Z,7.87
2017-02-04T02:31:13.124Z,7.85
2017-02-04T02:32:19.300Z,7.89
2017-02-04T02:33:24.554Z,7.85
2017-02-04T02:34:29.742Z,7.94
2017-02-04T02:35:36.025Z,7.99
2017-02-04T02:36:42.186Z,7.99
2017-02-04T02:37:48.358Z,7.99
2017-02-04T02:38:52.592Z,7.99
2017-02-04T02:39:56.804Z,7.97
2017-02-04T02:41:02.210Z,7.99
2017-02-04T02:42:08.348Z,7.93
2017-02-04T02:43:13.571Z,8.03
2017-02-04T02:44:18.766Z,8.07
2017-02-04T02:45:25.045Z,8.04
2017-02-04T02:46:30.253Z,8.1
2017-02-04T02:47:35.653Z,8.03
2017-02-04T02:48:41.827Z,8.08
2017-02-04T02:49:47.053Z,8.11
2017-02-04T02:50:52.230Z,8.08
2017-02-04T02:51:56.559Z,8.11
2017-02-04T02:53:01.755Z,8.07
2017-02-04T02:54:07.931Z,8.08
2017-02-04T02:55:13.133Z,8.03
2017-02-04T02:56:18.334Z,7.99
2017-02-04T02:57:23.531Z,8.02
2017-02-04T02:58:27.770Z,7.97
2017-02-04T02:59:33.938Z,7.96
2017-02-04T03:00:39.113Z,7.89
2017-02-04T03:01:43.403Z,7.85
2017-02-04T03:02:47.630Z,7.85
2017-02-04T03:03:52.844Z,7.78
2017-02-04T03:04:59.007Z,7.84
2017-02-04T03:06:04.209Z,7.77
2017-02-04T03:07:09.398Z,7.78
2017-02-04T03:08:14.596Z,7.79
2017-02-04T03:09:19.791Z,7.78
2017-02-04T03:10:25.971Z,7.79
2017-02-04T03:11:31.194Z,7.77
2017-02-04T03:12:36.370Z,7.77
2017-02-04T03:13:40.615Z,7.71
2017-02-04T03:14:46.836Z,7.72
2017-02-04T03:15:52.969Z,7.75
2017-02-04T03:16:57.196Z,7.74
2017-02-04T03:18:02.394Z,7.72
2017-02-04T03:19:08.565Z,7.75
2017-02-04T03:20:14.764Z,7.79
2017-02-04T03:21:19.005Z,7.72
2017-02-04T03:22:24.221Z,7.75
2017-02-04T03:23:29.430Z,7.71
2017-02-04T03:24:35.592Z,7.74
2017-02-04T03:25:40.796Z,7.77
2017-02-04T03:26:47.075Z,7.77
2017-02-04T03:27:52.279Z,7.79
2017-02-04T03:28:58.448Z,7.79
2017-02-04T03:30:04.633Z,7.77
2017-02-04T03:31:08.863Z,7.84
2017-02-04T03:32:15.025Z,7.77
2017-02-04T03:33:21.200Z,7.71
2017-02-04T03:34:25.407Z,7.69
2017-02-04T03:35:29.696Z,7.69
2017-02-04T03:36:34.867Z,7.77
2017-02-04T03:37:39.071Z,7.74
2017-02-04T03:38:44.279Z,7.71
2017-02-04T03:39:48.476Z,7.75
2017-02-04T03:40:54.647Z,7.62
2017-02-04T03:41:59.848Z,7.72
2017-02-04T03:43:05.046Z,7.66
2017-02-04T03:44:10.250Z,7.66
2017-02-04T03:45:15.428Z,7.62
2017-02-04T03:46:20.629Z,7.6
2017-02-04T03:47:25.833Z,7.63
2017-02-04T03:48:31.997Z,7.62
2017-02-04T03:49:37.205Z,7.59
2017-02-04T03:50:42.396Z,7.59
2017-02-04T03:51:47.647Z,7.53
2017-02-04T03:52:52.818Z,7.49
2017-02-04T03:53:58.012Z,7.44
2017-02-04T03:55:03.208Z,7.5
2017-02-04T03:56:09.371Z,7.5
2017-02-04T03:57:15.545Z,7.47
2017-02-04T03:58:21.744Z,7.5
2017-02-04T03:59:27.883Z,7.55
2017-02-04T04:00:34.049Z,7.53
2017-02-04T04:01:40.231Z,7.49
2017-02-04T04:02:45.413Z,7.58
2017-02-04T04:03:50.596Z,7.38
2017-02-04T04:04:56.861Z,7.38
2017-02-04T04:06:03.024Z,7.41
2017-02-04T04:07:07.350Z,7.38
2017-02-04T04:08:12.583Z,7.38
2017-02-04T04:09:15.871Z,7.45
2017-02-04T04:10:21.044Z,7.44
2017-02-04T04:11:26.233Z,7.41
2017-02-04T04:12:32.429Z,7.35
2017-02-04T04:13:37.640Z,7.42
2017-02-04T04:14:43.892Z,7.41
2017-02-04T04:15:50.079Z,7.4
2017-02-04T04:16:56.252Z,7.41
2017-02-04T04:18:01.448Z,7.4
2017-02-04T04:19:05.681Z,7.41
2017-02-04T04:20:11.842Z,7.35
2017-02-04T04:21:18.167Z,7.44
2017-02-04T04:22:23.501Z,7.38
2017-02-04T04:23:27.711Z,7.37
2017-02-04T04:24:32.914Z,7.38
2017-02-04T04:25:39.087Z,7.34
2017-02-04T04:26:44.281Z,7.42
2017-02-04T04:27:48.479Z,7.37
2017-02-04T04:28:53.710Z,7.38
2017-02-04T04:29:57.919Z,7.45
2017-02-04T04:31:03.123Z,7.37
2017-02-04T04:32:09.286Z,7.38
2017-02-04T04:33:14.494Z,7.4
2017-02-04T04:34:20.670Z,7.37
2017-02-04T04:35:26.839Z,7.35
2017-02-04T04:36:33.034Z,7.35
2017-02-04T04:37:37.232Z,7.29
2017-02-04T04:38:42.439Z,7.23
2017-02-04T04:39:47.645Z,7.2
2017-02-04T04:40:53.809Z,7.17
2017-02-04T04:41:58.043Z,7.19
2017-02-04T04:43:03.242Z,7.15
2017-02-04T04:44:08.444Z,7.09
2017-02-04T04:45:14.619Z,7.12
2017-02-04T04:46:19.841Z,6.98
2017-02-04T04:47:25.069Z,7.01
2017-02-04T04:48:30.248Z,7.09
2017-02-04T04:49:36.419Z,7.04
2017-02-04T04:50:42.578Z,7.04
2017-02-04T04:51:47.778Z,7.05
2017-02-04T04:52:53.951Z,7.04
2017-02-04T04:53:59.122Z,7.05
2017-02-04T04:55:02.384Z,7.08
2017-02-04T04:56:07.583Z,7.07
2017-02-04T04:57:12.869Z,7.07
2017-02-04T04:58:19.036Z,7.12
2017-02-04T04:59:25.254Z,7.16
2017-02-04T05:00:30.443Z,7.22
2017-02-04T05:01:34.617Z,7.15
2017-02-04T05:02:39.812Z,7.16
2017-02-04T05:03:44.056Z,7.26
2017-02-04T05:04:49.266Z,7.2
2017-02-04T05:05:55.473Z,7.23
2017-02-04T05:07:00.647Z,7.22
2017-02-04T05:08:04.956Z,7.23
2017-02-04T05:09:08.233Z,7.22
2017-02-04T05:10:14.400Z,7.22
2017-02-04T05:11:18.629Z,7.24
2017-02-04T05:12:21.899Z,7.24
2017-02-04T05:13:27.110Z,7.2
2017-02-04T05:14:32.310Z,7.2
2017-02-04T05:15:38.476Z,7.26
2017-02-04T05:16:43.675Z,7.22
2017-02-04T05:18:54.045Z,7.29
2017-02-04T05:19:59.236Z,7.35
2017-02-04T05:21:05.415Z,7.37
2017-02-04T05:22:09.620Z,7.35
2017-02-04T05:23:15.790Z,7.37
2017-02-04T05:24:19.995Z,7.23
2017-02-04T05:25:25.163Z,7.22
2017-02-04T05:26:30.361Z,7.15
2017-02-04T05:27:35.609Z,7.13
2017-02-04T05:28:41.736Z,7.07
2017-02-04T05:29:47.955Z,7.05
2017-02-04T05:30:52.173Z,7.09
2017-02-04T05:31:57.377Z,7.05
2017-02-04T05:33:02.552Z,7.02
2017-02-04T05:34:08.818Z,7.04
2017-02-04T05:35:13.922Z,7.05
2017-02-04T05:36:19.129Z,6.97
2017-02-04T05:37:24.334Z,7.05
2017-02-04T05:38:29.538Z,7.01
2017-02-04T05:39:34.955Z,7.04
2017-02-04T05:40:41.109Z,7.08
2017-02-04T05:41:45.398Z,7.04
2017-02-04T05:42:51.534Z,7.04
2017-02-04T05:43:57.706Z,7.07
2017-02-04T05:45:03.882Z,7.13
2017-02-04T05:46:09.051Z,7.09
2017-02-04T05:47:13.282Z,7.13
2017-02-04T05:48:18.550Z,7.15
2017-02-04T05:49:23.744Z,7.12
2017-02-04T05:50:28.954Z,7.13
2017-02-04T05:51:33.187Z,7.16
2017-02-04T05:52:39.368Z,7.2
2017-02-04T05:53:45.531Z,7.12
2017-02-04T05:54:51.719Z,7.07
2017-02-04T05:55:55.924Z,6.98
2017-02-04T05:58:07.285Z,6.89
2017-02-04T05:59:11.525Z,6.94
2017-02-04T06:00:17.704Z,6.81
2017-02-04T06:01:22.955Z,6.86
2017-02-04T06:02:28.081Z,6.84
2017-02-04T06:03:34.265Z,6.77
2017-02-04T06:04:38.492Z,6.8
2017-02-04T06:05:42.725Z,6.73
2017-02-04T06:06:48.889Z,6.68
2017-02-04T06:07:54.059Z,6.63
2017-02-04T06:08:59.314Z,6.51
2017-02-04T06:10:04.462Z,6.56
2017-02-04T06:11:09.660Z,6.5
2017-02-04T06:12:14.859Z,6.48
2017-02-04T06:13:20.032Z,6.41
2017-02-04T06:14:25.267Z,6.4
2017-02-04T06:15:30.436Z,6.33
2017-02-04T06:16:34.632Z,6.3
2017-02-04T06:17:39.829Z,6.26
2017-02-04T06:18:44.026Z,6.26
2017-02-04T06:19:48.266Z,6.18
2017-02-04T06:20:53.458Z,6.25
2017-02-04T06:21:59.682Z,6.25
2017-02-04T06:23:05.802Z,6.19
2017-02-04T06:24:11.976Z,6.26
2017-02-04T06:25:16.181Z,6.19
2017-02-04T06:26:22.350Z,6.18
2017-02-04T06:27:28.507Z,6.13
2017-02-04T06:28:32.746Z,6.11
2017-02-04T06:29:38.929Z,6.14
2017-02-04T06:30:45.084Z,6.06
2017-02-04T06:31:49.387Z,6.09
2017-02-04T06:32:53.615Z,6.09
2017-02-04T06:33:56.912Z,6.06
2017-02-04T06:35:03.069Z,5.98
2017-02-04T06:36:08.274Z,5.89
2017-02-04T06:37:12.506Z,5.91
2017-02-04T06:38:16.747Z,5.86
2017-02-04T06:39:21.950Z,5.81
2017-02-04T06:40:26.147Z,5.89
2017-02-04T06:41:31.349Z,5.81
2017-02-04T06:42:37.532Z,5.82
2017-02-04T06:43:43.729Z,5.81
2017-02-04T06:44:49.879Z,5.68
2017-02-04T06:47:00.405Z,5.63
2017-02-04T06:48:05.574Z,5.63
2017-02-04T06:49:11.723Z,5.6
2017-02-04T06:50:16.893Z,5.56
2017-02-04T06:51:23.061Z,5.55
2017-02-04T06:52:28.252Z,5.55
2017-02-04T06:53:34.435Z,5.5
2017-02-04T06:54:37.668Z,5.5
2017-02-04T06:55:42.869Z,5.45
2017-02-04T06:56:49.033Z,5.48
2017-02-04T06:57:54.235Z,5.53
2017-02-04T06:59:00.483Z,5.43
2017-02-04T07:00:04.719Z,5.38
2017-02-04T07:01:10.878Z,5.45
2017-02-04T07:02:17.048Z,5.37
2017-02-04T07:03:22.252Z,5.45
2017-02-04T07:04:28.426Z,5.38
2017-02-04T07:05:34.599Z,5.3
2017-02-04T07:06:39.795Z,5.28
2017-02-04T07:07:45.980Z,5.25
2017-02-04T07:08:51.188Z,5.23
2017-02-04T07:09:55.417Z,5.13
2017-02-04T07:11:00.613Z,5.1
2017-02-04T07:12:04.814Z,5.12
2017-02-04T07:13:10.979Z,5.17
2017-02-04T07:14:15.186Z,5.07
2017-02-04T07:15:21.370Z,5.13
2017-02-04T07:16:27.556Z,5.16
2017-02-04T07:17:32.771Z,5.14
2017-02-04T07:18:39.009Z,5.12
2017-02-04T07:19:45.103Z,5.19
2017-02-04T07:20:50.319Z,5.13
2017-02-04T07:21:54.617Z,5.16
2017-02-04T07:23:00.786Z,5.25
2017-02-04T07:24:07.062Z,5.16
2017-02-04T07:25:13.199Z,5.23
2017-02-04T07:26:17.439Z,5.25
2017-02-04T07:27:19.716Z,5.23
2017-02-04T07:28:24.916Z,5.25
2017-02-04T07:29:30.128Z,5.3
2017-02-04T07:30:34.337Z,5.38
2017-02-04T07:31:39.528Z,5.43
2017-02-04T07:32:45.701Z,5.46
2017-02-04T07:33:51.962Z,5.38
2017-02-04T07:34:58.125Z,5.41
2017-02-04T07:36:04.289Z,5.43
2017-02-04T07:37:09.470Z,5.5
2017-02-04T07:38:13.710Z,5.53
2017-02-04T07:39:19.875Z,5.64
2017-02-04T07:40:23.152Z,5.64
2017-02-04T07:41:27.410Z,5.77
2017-02-04T07:42:33.546Z,5.77
2017-02-04T07:43:39.762Z,5.88
2017-02-04T07:44:45.916Z,6.28
2017-02-04T07:45:51.154Z,6.65
2017-02-04T07:46:57.294Z,7.04
2017-02-04T07:48:03.459Z,7.42
2017-02-04T07:49:08.664Z,7.81
2017-02-04T07:50:13.866Z,8.17
2017-02-04T07:51:19.076Z,8.6
2017-02-04T07:52:24.316Z,8.97
2017-02-04T07:53:30.497Z,9.32
2017-02-04T07:54:35.695Z,9.64
2017-02-04T07:55:40.937Z,9.91
2017-02-04T07:56:47.103Z,10.06
2017-02-04T07:58:58.479Z,10.7
2017-02-04T08:00:04.661Z,10.84
2017-02-04T08:01:10.833Z,11.24
2017-02-04T08:02:15.100Z,11.46
2017-02-04T08:03:21.275Z,11.57
2017-02-04T08:04:27.533Z,11.83
2017-02-04T08:05:33.708Z,12.37
2017-02-04T08:06:37.936Z,12.48
2017-02-04T08:07:43.229Z,12.77
2017-02-04T08:08:48.407Z,13.18
2017-02-04T08:09:54.575Z,13.51
2017-02-04T08:10:59.791Z,13.52
2017-02-04T08:12:05.020Z,13.37
2017-02-04T08:13:11.192Z,13.43
2017-02-04T08:14:17.363Z,13.36
2017-02-04T08:15:22.544Z,13.51
2017-02-04T08:16:28.734Z,13.62
2017-02-04T08:17:33.936Z,13.76
2017-02-04T08:18:39.249Z,13.76
2017-02-04T08:19:43.505Z,13.95
2017-02-04T08:20:49.684Z,13.92
2017-02-04T08:21:55.948Z,14.19
2017-02-04T08:22:59.219Z,14.32
2017-02-04T08:24:02.489Z,14.38
2017-02-04T08:25:07.667Z,14.46
2017-02-04T08:26:13.001Z,14.49
2017-02-04T08:27:19.143Z,14.78
2017-02-04T08:28:23.396Z,15.06
2017-02-04T08:29:29.590Z,15.28
2017-02-04T08:30:34.802Z,15.13
2017-02-04T08:31:39.984Z,15.43
2017-02-04T08:32:46.175Z,15.75
2017-02-04T08:33:52.351Z,16.04
2017-02-04T08:34:56.600Z,16.45
2017-02-04T08:36:02.829Z,16.83
2017-02-04T08:37:09.013Z,16.96
2017-02-04T08:38:15.228Z,16.98
2017-02-04T08:39:19.447Z,16.95
2017-02-04T08:40:25.644Z,16.83
2017-02-04T08:41:30.864Z,16.38
2017-02-04T08:42:36.121Z,16.01
2017-02-04T08:43:42.441Z,15.84
2017-02-04T08:44:47.666Z,15.93
2017-02-04T08:45:53.838Z,15.75
2017-02-04T08:47:00.018Z,15.74
2017-02-04T08:48:06.200Z,15.96
2017-02-04T08:49:11.436Z,15.96
2017-02-04T08:50:16.625Z,16.01
2017-02-04T08:51:22.817Z,16.27
2017-02-04T08:52:28.035Z,16.4
2017-02-04T08:53:33.243Z,16.68
2017-02-04T08:54:39.415Z,16.89
2017-02-04T08:56:48.893Z,17.26
2017-02-04T08:57:54.130Z,17.23
2017-02-04T08:59:00.271Z,17.15
2017-02-04T09:00:05.485Z,16.96
2017-02-04T09:01:10.671Z,17.1
2017-02-04T09:02:14.988Z,16.86
2017-02-04T09:03:20.183Z,16.96
2017-02-04T09:04:26.323Z,16.93
2017-02-04T09:05:31.531Z,17.32
2017-02-04T09:06:37.699Z,17.74
2017-02-04T09:07:40.982Z,18.04
2017-02-04T09:08:44.268Z,18.04
2017-02-04T09:09:50.442Z,17.64
2017-02-04T09:10:55.654Z,17.29
2017-02-04T09:12:01.842Z,17.25
2017-02-04T09:13:08.021Z,17.15
2017-02-04T09:14:11.301Z,16.96
2017-02-04T09:15:16.578Z,16.77
2017-02-04T09:16:21.909Z,16.4
2017-02-04T09:17:28.097Z,15.94
2017-02-04T09:18:34.282Z,15.74
2017-02-04T09:19:39.500Z,15.59
2017-02-04T09:20:45.678Z,15.15
2017-02-04T09:21:50.910Z,15.12
2017-02-04T09:22:57.084Z,14.74
2017-02-04T09:24:03.407Z,14.38
2017-02-04T09:25:08.644Z,14.07
2017-02-04T09:26:14.792Z,13.63
2017-02-04T09:27:20.003Z,13.47
2017-02-04T09:28:24.241Z,13.25
2017-02-04T09:29:29.456Z,12.97
2017-02-04T09:30:35.856Z,12.67
2017-02-04T09:31:42.030Z,12.85
2017-02-04T09:32:48.314Z,12.71
2017-02-04T09:33:53.561Z,12.59
2017-02-04T09:34:59.743Z,12.82
2017-02-04T09:36:05.915Z,12.93
2017-02-04T09:37:12.090Z,13.03
2017-02-04T09:38:18.277Z,12.84
2017-02-04T09:39:24.456Z,12.92
2017-02-04T09:40:29.680Z,13.03
2017-02-04T09:41:35.855Z,13.11
2017-02-04T09:42:42.068Z,13.43
2017-02-04T09:43:47.276Z,13.36
2017-02-04T09:44:53.467Z,13.25
2017-02-04T09:45:58.674Z,12.93
2017-02-04T09:47:04.853Z,12.92
2017-02-04T09:48:11.038Z,13
2017-02-04T09:49:16.237Z,12.89
2017-02-04T09:50:22.434Z,12.96
2017-02-04T09:51:27.612Z,12.64
2017-02-04T09:52:33.782Z,12.41
2017-02-04T09:53:38.976Z,12.27
2017-02-04T09:54:45.233Z,12.19
2017-02-04T09:55:49.677Z,12.02
2017-02-04T09:56:54.843Z,12.02
2017-02-04T09:58:01.021Z,11.86
2017-02-04T09:59:06.276Z,11.96
2017-02-04T10:00:12.419Z,11.89
2017-02-04T10:01:17.626Z,11.74
2017-02-04T10:02:23.850Z,11.74
2017-02-04T10:03:29.025Z,11.57
2017-02-04T10:04:35.205Z,11.52
2017-02-04T10:05:41.381Z,11.67
2017-02-04T10:06:47.632Z,11.47
2017-02-04T10:07:53.805Z,11.5
2017-02-04T10:08:59.991Z,11.64
2017-02-04T10:10:05.191Z,11.75
2017-02-04T10:11:10.397Z,11.86
2017-02-04T10:12:16.621Z,11.99
2017-02-04T10:13:22.798Z,12.15
2017-02-04T10:14:26.091Z,12.29
2017-02-04T10:15:32.310Z,12.19
2017-02-04T10:16:37.511Z,12.41
2017-02-04T10:17:43.692Z,12.16
2017-02-04T10:18:49.002Z,12.27
2017-02-04T10:19:52.240Z,12.15
2017-02-04T10:20:57.454Z,11.75
2017-02-04T10:22:03.628Z,11.72
2017-02-04T10:23:09.817Z,11.7
2017-02-04T10:24:15.033Z,11.72
2017-02-04T10:25:21.202Z,11.74
2017-02-04T10:26:27.374Z,11.64
2017-02-04T10:27:32.575Z,11.74
2017-02-04T10:28:35.826Z,11.78
2017-02-04T10:29:42.110Z,11.94
2017-02-04T10:30:47.319Z,12.11
2017-02-04T10:31:53.504Z,12.34
2017-02-04T10:32:59.683Z,12.64
2017-02-04T10:34:05.860Z,12.7
2017-02-04T10:35:11.070Z,12.87
2017-02-04T10:36:16.265Z,13.07
2017-02-04T10:37:22.440Z,13.3
2017-02-04T10:38:26.731Z,13.25
2017-02-04T10:39:32.915Z,13.07
2017-02-04T10:40:39.094Z,12.79
2017-02-04T10:41:44.276Z,12.71
2017-02-04T10:42:50.454Z,12.74
2017-02-04T10:43:54.755Z,12.79
2017-02-04T10:45:01.058Z,12.64
2017-02-04T10:46:07.353Z,12.77
2017-02-04T10:47:12.474Z,12.79
2017-02-04T10:48:16.896Z,12.82
2017-02-04T10:49:22.070Z,12.7
2017-02-04T10:50:25.347Z,12.63
2017-02-04T10:51:31.584Z,12.42
2017-02-04T10:52:37.762Z,12.26
2017-02-04T10:53:43.947Z,12.09
2017-02-04T10:54:49.159Z,12.05
2017-02-04T10:55:55.329Z,11.94
2017-02-04T10:56:59.662Z,11.71
2017-02-04T10:58:04.865Z,11.64
2017-02-04T10:59:11.052Z,11.71
2017-02-04T11:00:16.262Z,11.75
2017-02-04T11:01:22.438Z,11.7
2017-02-04T11:02:27.616Z,11.68
2017-02-04T11:03:32.821Z,11.56
2017-02-04T11:04:39.012Z,11.44
2017-02-04T11:05:45.292Z,11.41
2017-02-04T11:06:50.510Z,11.27
2017-02-04T11:07:54.760Z,11.01
2017-02-04T11:08:59.163Z,10.89
2017-02-04T11:10:04.376Z,10.78
2017-02-04T11:11:09.578Z,10.76
2017-02-04T11:12:15.751Z,10.83
2017-02-04T11:13:21.921Z,10.74
2017-02-04T11:14:26.212Z,10.68
2017-02-04T11:15:31.384Z,10.74
2017-02-04T11:16:37.669Z,10.71
2017-02-04T11:17:43.783Z,10.71
2017-02-04T11:18:49.961Z,10.73
2017-02-04T11:19:56.205Z,10.66
2017-02-04T11:21:00.448Z,10.7
2017-02-04T11:22:06.623Z,10.63
2017-02-04T11:23:10.899Z,10.66
2017-02-04T11:24:16.071Z,10.6
2017-02-04T11:25:21.289Z,10.68
2017-02-04T11:26:26.490Z,10.65
2017-02-04T11:27:31.680Z,10.68
2017-02-04T11:28:37.847Z,10.59
2017-02-04T11:29:44.023Z,10.59
2017-02-04T11:30:49.239Z,10.39
2017-02-04T11:31:55.413Z,10.4
2017-02-04T11:32:58.680Z,10.4
2017-02-04T11:34:04.824Z,10.43
2017-02-04T11:35:11.007Z,10.43
2017-02-04T11:36:16.249Z,10.43
2017-02-04T11:37:22.421Z,10.33
2017-02-04T11:38:26.758Z,10.32
2017-02-04T11:39:31.960Z,10.3
2017-02-04T11:40:38.127Z,10.1
2017-02-04T11:41:44.306Z,10.03
2017-02-04T11:42:49.516Z,9.88
2017-02-04T11:43:55.751Z,9.89
2017-02-04T11:45:00.916Z,9.93
2017-02-04T11:46:06.130Z,10.06
2017-02-04T11:47:11.337Z,9.97
2017-02-04T11:48:17.520Z,10.01
2017-02-04T11:49:23.689Z,10.03
2017-02-04T11:50:28.888Z,9.96
2017-02-04T11:51:35.054Z,10.09
2017-02-04T11:52:40.347Z,10.21
2017-02-04T11:53:46.522Z,10.21
2017-02-04T11:54:51.724Z,10.21
2017-02-04T11:55:57.904Z,10.17
2017-02-04T11:57:03.111Z,9.96
2017-02-04T11:58:08.333Z,10.03
2017-02-04T11:59:13.543Z,9.83
2017-02-04T12:00:17.790Z,9.93
2017-02-04T12:01:24.036Z,10.07
2017-02-04T12:02:30.220Z,10.09
2017-02-04T12:03:35.425Z,10.09
2017-02-04T12:04:40.685Z,10.06
2017-02-04T12:05:46.827Z,10
2017-02-04T12:06:52.030Z,10.14
2017-02-04T12:07:58.214Z,10.15
2017-02-04T12:09:04.381Z,10.3
2017-02-04T12:10:09.599Z,10.26
2017-02-04T12:11:14.802Z,10.34
2017-02-04T12:12:21.102Z,10.36
2017-02-04T12:13:27.266Z,10.33
2017-02-04T12:14:31.478Z,10.39
2017-02-04T12:15:36.755Z,10.37
2017-02-04T12:16:41.935Z,10.39
2017-02-04T12:17:47.244Z,10.39
2017-02-04T12:18:53.411Z,10.42
2017-02-04T12:19:59.730Z,10.39
2017-02-04T12:21:05.873Z,10.3
2017-02-04T12:22:10.103Z,10.25
2017-02-04T12:23:16.362Z,10.25
2017-02-04T12:24:22.569Z,10.1
2017-02-04T12:25:28.707Z,10.17
2017-02-04T12:26:31.978Z,10.15
2017-02-04T12:27:37.192Z,10.17
2017-02-04T12:28:43.362Z,10.19
2017-02-04T12:29:49.545Z,10.22
2017-02-04T12:30:53.768Z,10.21
2017-02-04T12:31:59.953Z,10.17
2017-02-04T12:33:06.123Z,10.19
2017-02-04T12:34:12.292Z,10.34
2017-02-04T12:35:16.504Z,10.43
2017-02-04T12:36:22.686Z,10.36
2017-02-04T12:37:27.957Z,10.36
2017-02-04T12:38:34.165Z,10.37
2017-02-04T12:39:39.343Z,10.28
2017-02-04T12:40:45.588Z,10.21
2017-02-04T12:41:50.744Z,10.07
2017-02-04T12:42:55.952Z,9.96
2017-02-04T12:44:01.165Z,10.12
2017-02-04T12:45:06.429Z,10.09
2017-02-04T12:46:11.632Z,10.15
2017-02-04T12:47:16.843Z,10.18
2017-02-04T12:48:22.075Z,10.28
2017-02-04T12:49:27.254Z,10.33
2017-02-04T12:50:33.435Z,10.33
2017-02-04T12:51:37.649Z,10.33
2017-02-04T12:52:43.811Z,10.25
2017-02-04T12:53:48.031Z,10.21
2017-02-04T12:54:51.299Z,10.12
2017-02-04T12:55:57.435Z,10.06
2017-02-04T12:57:03.600Z,9.83
2017-02-04T12:58:08.797Z,9.79
2017-02-04T12:59:12.066Z,9.81
2017-02-04T13:00:18.247Z,9.75
2017-02-04T13:01:23.440Z,9.78
2017-02-04T13:02:29.614Z,9.85
2017-02-04T13:03:34.826Z,9.96
2017-02-04T13:04:41.024Z,9.99
2017-02-04T13:05:45.276Z,10.06
2017-02-04T13:06:50.448Z,10.06
2017-02-04T13:07:55.629Z,10.07
2017-02-04T13:09:01.799Z,10.1
2017-02-04T13:10:07.971Z,10.07
2017-02-04T13:11:13.181Z,10.09
2017-02-04T13:12:19.348Z,10.1
2017-02-04T13:13:24.535Z,10
2017-02-04T13:14:30.709Z,10.01
2017-02-04T13:15:36.945Z,10.09
2017-02-04T13:16:43.103Z,10.17
2017-02-04T13:17:48.352Z,10.21
2017-02-04T13:18:53.523Z,10.21
2017-02-04T13:19:57.765Z,10.24
2017-02-04T13:21:03.940Z,10.22
2017-02-04T13:22:09.148Z,10.34
2017-02-04T13:23:14.365Z,10.42
2017-02-04T13:24:19.600Z,10.37
2017-02-04T13:25:24.746Z,10.39
2017-02-04T13:26:29.932Z,10.34
2017-02-04T13:27:36.101Z,10.12
2017-02-04T13:28:41.310Z,10.09
2017-02-04T13:29:47.492Z,10.24
2017-02-04T13:30:53.704Z,10.22
2017-02-04T13:31:58.880Z,10.06
2017-02-04T13:33:03.109Z,9.97
2017-02-04T13:34:09.320Z,9.88
2017-02-04T13:35:13.509Z,9.94
2017-02-04T13:36:19.684Z,9.88
2017-02-04T13:37:25.857Z,9.93
2017-02-04T13:38:32.037Z,10
2017-02-04T13:39:37.293Z,9.89
2017-02-04T13:40:42.470Z,9.88
2017-02-04T13:41:48.659Z,9.97
2017-02-04T13:42:52.881Z,9.86
2017-02-04T13:43:59.057Z,9.96
2017-02-04T13:45:05.251Z,9.86
2017-02-04T13:46:11.587Z,9.83
2017-02-04T13:47:16.762Z,9.94
2017-02-04T13:48:22.938Z,9.93
2017-02-04T13:49:28.180Z,9.88
2017-02-04T13:50:33.362Z,9.94
2017-02-04T13:51:39.588Z,9.91
2017-02-04T13:52:45.801Z,9.99
2017-02-04T13:53:51.953Z,9.93
2017-02-04T13:54:58.166Z,9.85
2017-02-04T13:56:03.338Z,9.86
2017-02-04T13:57:08.519Z,9.86
2017-02-04T13:58:13.689Z,9.81
2017-02-04T13:59:19.865Z,9.82
2017-02-04T14:00:25.133Z,9.88
2017-02-04T14:01:31.302Z,9.75
2017-02-04T14:02:36.514Z,9.75
2017-02-04T14:03:42.689Z,9.7
2017-02-04T14:04:46.929Z,9.68
2017-02-04T14:05:52.139Z,9.76
2017-02-04T14:06:55.439Z,9.6
2017-02-04T14:08:01.611Z,9.58
2017-02-04T14:09:06.816Z,9.61
2017-02-04T14:10:13.023Z,9.57
2017-02-04T14:11:19.210Z,9.52
2017-02-04T14:12:24.436Z,9.58
2017-02-04T14:13:30.606Z,9.56
2017-02-04T14:14:35.881Z,9.43
2017-02-04T14:15:41.077Z,9.43
2017-02-04T14:16:44.312Z,9.49
2017-02-04T14:17:49.516Z,9.56
2017-02-04T14:18:55.748Z,9.49
2017-02-04T14:20:00.950Z,9.45
2017-02-04T14:21:06.159Z,9.42
2017-02-04T14:22:10.402Z,9.4
2017-02-04T14:23:15.612Z,9.43
2017-02-04T14:24:20.830Z,9.35
2017-02-04T14:25:25.043Z,9.4
2017-02-04T14:26:30.238Z,9.42
2017-02-04T14:27:36.520Z,9.35
2017-02-04T14:28:42.702Z,9.4
2017-02-04T14:29:48.869Z,9.38